Urb Bahia Vistamar, Puerto Rico
Current Conditions -  °F | °C
As of 6:56 PM on Friday 19 Dec 2014 (Local Time) from TJSJ Reporting Station
Scattered Clouds Scattered Clouds  
Wind Chill: 79°   Ceiling: Unl
Heat Index: 82°   Visibility: 10mi
Dew Point: 70°   Wind: 8mph
Humidity: 74%   Direction: 70°ENE
Pressure: 29.98"   Gusts: NA
Location:  18.4298°N, 65.9816°W
Report Text: TJSJ 192256Z 07007KT 10SM FEW030 SCT070 26/21 A2998 RMK AO2 SLP149 T02610211
Loading
Personal Weather Stations






























Interactive Weather Map New forecast layout! Learn more

10-Day Weather Forecast

Advertisements
Track Severe Weather on mobile